Time;durP1;ratioP1;P1;durP2;ratioP2;P2;SDS_P1;SDS_P2;PMS_P1;PMS_P2;Temp;Humidity;BMP_temperature;BMP_pressure;BME280_temperature;BME280_humidity;BME280_pressure;Samples;Min_cycle;Max_cycle;Signal;HPM_P1;HPM_P2
2023/05/07 00:00:18;;;;;;;24.67;17.98;;;11.70;99.90;;;;;;5088792;28;20039;-73
2023/05/07 00:02:45;;;;;;;27.20;19.70;;;11.70;99.90;;;;;;5089732;28;20056;-74
2023/05/07 00:05:11;;;;;;;28.15;20.02;;;11.70;99.90;;;;;;5088466;28;20051;-73
2023/05/07 00:07:37;;;;;;;28.38;20.00;;;11.60;99.90;;;;;;5075249;28;20041;-74
2023/05/07 00:10:03;;;;;;;30.35;19.40;;;11.50;99.90;;;;;;5075508;28;20055;-73
2023/05/07 00:12:33;;;;;;;25.85;19.35;;;11.60;99.90;;;;;;5095175;28;20047;-74
2023/05/07 00:15:00;;;;;;;24.98;17.95;;;11.60;99.90;;;;;;5078304;28;20640;-73
2023/05/07 00:17:26;;;;;;;27.35;18.65;;;11.70;99.90;;;;;;5099943;28;20044;-73
2023/05/07 00:19:51;;;;;;;26.23;18.65;;;11.60;99.90;;;;;;5077348;28;20058;-74
2023/05/07 00:22:17;;;;;;;25.33;17.90;;;11.70;99.90;;;;;;5082173;28;20052;-75
2023/05/07 00:24:43;;;;;;;25.33;17.08;;;11.60;99.90;;;;;;5064563;28;20118;-73
2023/05/07 00:27:09;;;;;;;25.35;17.90;;;11.60;99.90;;;;;;5094489;28;20088;-73
2023/05/07 00:29:36;;;;;;;19.67;14.93;;;11.70;99.90;;;;;;5095007;28;20040;-74
2023/05/07 00:32:02;;;;;;;20.17;14.68;;;11.60;99.90;;;;;;5087149;28;20040;-74
2023/05/07 00:34:27;;;;;;;19.67;14.20;;;11.50;99.90;;;;;;5057121;28;20053;-73
2023/05/07 00:36:53;;;;;;;21.65;14.40;;;11.60;99.90;;;;;;5080987;28;20133;-73
2023/05/07 00:39:19;;;;;;;20.90;13.60;;;11.60;99.90;;;;;;5092414;28;20059;-74
2023/05/07 00:41:45;;;;;;;17.85;12.88;;;11.60;99.90;;;;;;5043720;28;20064;-73
2023/05/07 00:44:11;;;;;;;18.85;13.60;;;11.40;99.90;;;;;;5060410;28;20044;-73
2023/05/07 00:46:37;;;;;;;20.38;14.40;;;11.40;99.90;;;;;;5073525;28;20102;-73
2023/05/07 00:49:03;;;;;;;20.10;14.32;;;11.20;99.90;;;;;;5054365;28;20037;-74
2023/05/07 00:51:28;;;;;;;23.50;15.05;;;11.20;99.90;;;;;;5054566;28;20068;-74
2023/05/07 00:53:54;;;;;;;21.00;14.98;;;11.30;99.90;;;;;;5074072;28;20043;-74
2023/05/07 00:56:21;;;;;;;19.30;13.85;;;11.30;99.90;;;;;;5076722;28;20457;-73
2023/05/07 00:58:47;;;;;;;20.17;14.02;;;11.30;99.90;;;;;;5057711;28;20110;-73
2023/05/07 01:01:12;;;;;;;21.15;14.63;;;11.40;99.90;;;;;;5088517;28;20040;-73
2023/05/07 01:03:38;;;;;;;18.40;13.05;;;11.30;99.90;;;;;;5074988;28;20059;-74
2023/05/07 01:06:05;;;;;;;17.40;12.35;;;11.30;99.90;;;;;;5053710;28;20040;-74
2023/05/07 01:08:31;;;;;;;20.52;13.95;;;11.20;99.90;;;;;;5059573;28;20066;-74
2023/05/07 01:10:57;;;;;;;18.85;11.98;;;11.30;99.90;;;;;;5058164;28;20036;-74
2023/05/07 01:13:22;;;;;;;16.10;11.55;;;11.40;99.90;;;;;;5085932;28;20051;-74
2023/05/07 01:15:48;;;;;;;17.50;12.10;;;11.20;99.90;;;;;;5067734;28;20131;-73
2023/05/07 01:18:15;;;;;;;17.13;12.85;;;11.20;99.90;;;;;;5091259;28;20133;-73
2023/05/07 01:20:41;;;;;;;15.35;11.65;;;11.10;99.90;;;;;;5094226;28;20048;-74
2023/05/07 01:23:06;;;;;;;15.95;11.20;;;11.20;99.90;;;;;;5059648;28;20048;-73
2023/05/07 01:25:32;;;;;;;14.88;11.13;;;11.00;99.90;;;;;;5076809;28;20036;-74
2023/05/07 01:28:02;;;;;;;15.30;10.93;;;11.10;99.90;;;;;;5052029;28;20342;-73
2023/05/07 01:30:27;;;;;;;15.10;11.00;;;11.00;99.90;;;;;;5093072;28;20054;-73
2023/05/07 01:33:16;;;;;;;14.52;10.40;;;11.10;99.90;;;;;;5042106;28;20052;-73
2023/05/07 01:35:43;;;;;;;14.38;10.80;;;11.20;99.90;;;;;;5080626;28;20040;-73
2023/05/07 01:38:09;;;;;;;17.00;11.80;;;11.20;99.90;;;;;;5060264;28;20048;-73
2023/05/07 01:40:35;;;;;;;15.52;11.52;;;11.20;99.90;;;;;;5069453;28;20051;-74
2023/05/07 01:43:02;;;;;;;13.27;10.02;;;11.20;99.90;;;;;;5070416;28;20060;-73
2023/05/07 01:45:28;;;;;;;15.50;11.10;;;11.20;99.90;;;;;;5059578;28;20456;-74
2023/05/07 01:47:53;;;;;;;12.48;10.10;;;11.10;99.90;;;;;;5059199;28;20040;-74
2023/05/07 01:50:19;;;;;;;14.50;10.95;;;11.10;99.90;;;;;;5069186;28;20040;-74
2023/05/07 01:52:45;;;;;;;12.80;9.00;;;11.00;99.90;;;;;;5056015;28;20373;-73
2023/05/07 01:55:11;;;;;;;15.30;9.65;;;11.10;99.90;;;;;;5034027;28;20040;-74
2023/05/07 01:57:37;;;;;;;13.00;9.95;;;11.10;99.90;;;;;;5075508;28;20050;-74
2023/05/07 02:00:04;;;;;;;11.65;9.18;;;11.20;99.90;;;;;;5058214;28;20368;-74
2023/05/07 02:02:30;;;;;;;12.13;8.80;;;11.20;99.90;;;;;;5092917;28;20407;-73
2023/05/07 02:04:56;;;;;;;14.40;9.73;;;11.30;99.90;;;;;;5055298;28;20041;-75
2023/05/07 02:07:22;;;;;;;13.65;9.02;;;11.30;99.90;;;;;;5071158;28;20044;-73
2023/05/07 02:09:48;;;;;;;10.55;9.13;;;11.20;99.90;;;;;;5059151;28;20105;-73
2023/05/07 02:12:13;;;;;;;11.73;8.80;;;11.20;99.90;;;;;;5090077;28;20075;-73
2023/05/07 02:14:39;;;;;;;13.60;9.73;;;11.20;99.90;;;;;;5055422;28;20131;-74
2023/05/07 02:17:05;;;;;;;15.38;8.85;;;11.20;99.90;;;;;;5064992;28;20105;-74
2023/05/07 02:19:31;;;;;;;13.90;9.15;;;11.20;99.90;;;;;;5092603;28;20072;-73
2023/05/07 02:21:57;;;;;;;12.65;9.73;;;11.20;99.90;;;;;;5056329;28;20484;-73
2023/05/07 02:24:23;;;;;;;11.45;9.15;;;11.20;99.90;;;;;;5089881;28;20044;-74
2023/05/07 02:26:48;;;;;;;13.55;10.35;;;11.20;99.90;;;;;;5093166;28;20135;-74
2023/05/07 02:29:14;;;;;;;13.38;10.23;;;11.10;99.90;;;;;;5069265;28;20089;-74
2023/05/07 02:31:40;;;;;;;12.50;9.88;;;11.00;99.90;;;;;;5075403;28;20101;-74
2023/05/07 02:34:06;;;;;;;16.17;11.95;;;11.10;99.90;;;;;;5074387;28;20555;-73
2023/05/07 02:36:32;;;;;;;12.35;9.60;;;11.10;99.90;;;;;;5074444;28;20082;-73
2023/05/07 02:38:58;;;;;;;14.90;9.98;;;11.10;99.90;;;;;;5091261;28;20043;-73
2023/05/07 02:41:23;;;;;;;14.63;10.00;;;11.10;99.90;;;;;;5051594;28;20477;-75
2023/05/07 02:43:49;;;;;;;13.55;10.00;;;11.00;99.90;;;;;;5057197;28;20444;-74
2023/05/07 02:46:15;;;;;;;12.73;8.85;;;11.10;99.90;;;;;;5075086;28;20040;-73
2023/05/07 02:48:41;;;;;;;12.73;10.05;;;11.20;99.90;;;;;;5056327;28;20101;-74
2023/05/07 02:51:07;;;;;;;13.45;9.52;;;11.00;99.90;;;;;;5056093;28;20082;-74
2023/05/07 02:53:33;;;;;;;13.40;10.98;;;11.00;99.90;;;;;;5091698;28;20081;-74
2023/05/07 02:56:00;;;;;;;11.68;8.43;;;10.90;99.90;;;;;;5052103;28;20048;-74
2023/05/07 02:58:27;;;;;;;;;;;10.90;99.90;;;;;;5069167;28;20048;-74
2023/05/07 03:00:54;;;;;;;11.15;9.35;;;10.90;99.90;;;;;;5071741;28;19923;-74
2023/05/07 03:03:20;;;;;;;13.30;9.77;;;10.80;99.90;;;;;;5078158;28;20040;-73
2023/05/07 03:05:46;;;;;;;13.45;9.98;;;10.80;99.90;;;;;;5075278;28;20051;-73
2023/05/07 03:08:11;;;;;;;12.00;8.77;;;10.90;99.90;;;;;;5074913;28;20040;-74
2023/05/07 03:10:37;;;;;;;11.35;8.65;;;11.00;99.90;;;;;;5084408;28;20084;-74
2023/05/07 03:13:03;;;;;;;15.25;11.25;;;11.00;99.90;;;;;;5041807;28;20048;-74
2023/05/07 03:15:29;;;;;;;13.93;11.05;;;10.50;99.90;;;;;;5069172;28;20346;-74
2023/05/07 03:17:55;;;;;;;13.68;9.55;;;10.50;99.90;;;;;;5070334;28;20051;-74
2023/05/07 03:20:21;;;;;;;11.63;8.60;;;10.70;99.90;;;;;;5089679;28;20051;-74
2023/05/07 03:22:47;;;;;;;13.18;10.48;;;10.80;99.90;;;;;;5075037;28;20040;-74
2023/05/07 03:25:14;;;;;;;13.82;10.45;;;10.80;99.90;;;;;;5072537;28;20496;-73
2023/05/07 03:27:41;;;;;;;14.38;10.30;;;10.80;99.90;;;;;;5065467;28;20488;-74
2023/05/07 03:30:08;;;;;;;14.90;11.47;;;10.80;99.90;;;;;;5038370;28;20044;-73
2023/05/07 03:32:35;;;;;;;14.35;11.15;;;10.80;99.90;;;;;;5072005;28;20720;-74
2023/05/07 03:35:01;;;;;;;16.85;12.10;;;10.80;99.90;;;;;;5058132;28;20089;-74
2023/05/07 03:37:26;;;;;;;13.90;10.75;;;10.80;99.90;;;;;;5048288;28;20040;-74
2023/05/07 03:39:52;;;;;;;14.55;10.75;;;10.80;99.90;;;;;;5068121;28;20101;-73
2023/05/07 03:42:18;;;;;;;13.52;10.82;;;10.70;99.90;;;;;;5074086;28;20051;-73
2023/05/07 03:44:45;;;;;;;13.18;10.10;;;10.80;99.90;;;;;;5087337;28;20138;-73
2023/05/07 03:47:10;;;;;;;14.88;10.40;;;10.80;99.90;;;;;;5077545;28;20075;-73
2023/05/07 03:49:36;;;;;;;11.93;9.50;;;10.60;99.90;;;;;;5048420;28;20060;-73
2023/05/07 03:52:02;;;;;;;10.85;9.02;;;10.70;99.90;;;;;;5050680;28;20037;-74
2023/05/07 03:54:28;;;;;;;11.27;8.38;;;10.70;99.90;;;;;;5054597;28;20361;-73
2023/05/07 03:56:54;;;;;;;10.30;8.77;;;10.60;99.90;;;;;;5083638;28;20044;-73
2023/05/07 03:59:21;;;;;;;9.43;7.75;;;10.60;99.90;;;;;;5056213;28;20040;-74
2023/05/07 04:01:48;;;;;;;10.38;8.52;;;10.60;99.90;;;;;;5057371;28;20043;-74
2023/05/07 04:04:14;;;;;;;9.65;7.97;;;10.60;99.90;;;;;;5056996;28;20079;-73
2023/05/07 04:06:41;;;;;;;9.45;7.95;;;10.60;99.90;;;;;;5058755;28;20039;-74
2023/05/07 04:09:07;;;;;;;10.55;8.30;;;10.60;99.90;;;;;;5088547;28;20131;-74
2023/05/07 04:11:33;;;;;;;8.85;7.60;;;10.60;99.90;;;;;;5064604;28;20124;-74
2023/05/07 04:14:00;;;;;;;10.07;8.52;;;10.70;99.90;;;;;;5057907;28;20171;-74
2023/05/07 04:16:26;;;;;;;10.70;8.35;;;10.50;99.90;;;;;;5070638;28;20044;-73
2023/05/07 04:18:53;;;;;;;9.77;8.30;;;10.60;99.90;;;;;;5088586;28;20330;-73
2023/05/07 04:21:19;;;;;;;10.10;8.95;;;10.70;99.90;;;;;;5077124;28;20080;-74
2023/05/07 04:23:48;;;;;;;11.15;8.50;;;10.60;99.90;;;;;;5061158;28;20068;-74
2023/05/07 04:26:15;;;;;;;11.82;9.18;;;10.60;99.90;;;;;;5075339;28;20041;-74
2023/05/07 04:28:41;;;;;;;11.43;9.02;;;10.50;99.90;;;;;;5076776;28;20158;-74
2023/05/07 04:31:06;;;;;;;12.40;9.52;;;10.60;99.90;;;;;;5060966;28;20125;-73
2023/05/07 04:33:32;;;;;;;13.63;9.45;;;10.50;99.90;;;;;;5072922;28;20131;-73
2023/05/07 04:36:02;;;;;;;10.00;8.45;;;10.50;99.90;;;;;;5075284;28;20422;-73
2023/05/07 04:38:31;;;;;;;10.48;8.95;;;10.40;99.90;;;;;;5061443;28;20053;-73
2023/05/07 04:40:58;;;;;;;10.27;8.68;;;10.40;99.90;;;;;;5073954;28;20051;-74
2023/05/07 04:43:24;;;;;;;11.40;10.00;;;10.40;99.90;;;;;;5058446;28;20056;-73
2023/05/07 04:45:53;;;;;;;10.40;8.77;;;10.30;99.90;;;;;;5073736;28;20812;-73
2023/05/07 04:48:20;;;;;;;12.63;9.48;;;10.30;99.90;;;;;;5072379;28;20075;-73
2023/05/07 04:50:49;;;;;;;12.82;8.80;;;10.50;99.90;;;;;;5077427;28;20044;-73
2023/05/07 04:53:16;;;;;;;9.63;7.72;;;10.50;99.90;;;;;;5057508;28;20055;-73
2023/05/07 04:55:42;;;;;;;9.48;7.95;;;10.50;99.90;;;;;;5092615;28;20109;-74
2023/05/07 04:58:08;;;;;;;9.77;7.97;;;10.50;99.90;;;;;;5074332;28;20052;-74
2023/05/07 05:00:34;;;;;;;9.15;7.40;;;10.30;99.90;;;;;;5070874;28;20150;-74
2023/05/07 05:03:00;;;;;;;9.52;7.47;;;10.50;99.90;;;;;;5077076;28;20132;-73
2023/05/07 05:05:26;;;;;;;9.32;7.70;;;10.60;99.90;;;;;;5093478;28;20562;-74
2023/05/07 05:07:52;;;;;;;10.45;8.25;;;10.60;99.90;;;;;;5094084;28;20039;-73
2023/05/07 05:10:19;;;;;;;8.60;7.35;;;10.60;99.90;;;;;;5091465;28;20048;-73
2023/05/07 05:12:45;;;;;;;10.57;7.70;;;10.70;99.90;;;;;;5073799;28;20781;-73
2023/05/07 05:15:12;;;;;;;9.93;8.05;;;10.60;99.90;;;;;;5076050;28;20055;-73
2023/05/07 05:17:38;;;;;;;9.65;7.72;;;10.50;99.90;;;;;;5060351;28;20051;-73
2023/05/07 05:20:05;;;;;;;11.90;9.10;;;10.50;99.90;;;;;;5060000;28;20063;-73
2023/05/07 05:22:32;;;;;;;10.13;8.15;;;10.10;99.90;;;;;;5060374;28;20380;-73
2023/05/07 05:24:57;;;;;;;10.75;8.73;;;10.20;99.90;;;;;;5073009;28;20051;-73
2023/05/07 05:27:23;;;;;;;11.82;9.73;;;10.20;99.90;;;;;;5088795;28;20048;-73
2023/05/07 05:29:49;;;;;;;10.80;8.80;;;10.20;99.90;;;;;;5070099;28;20111;-73
2023/05/07 05:32:16;;;;;;;13.88;8.50;;;10.20;99.90;;;;;;5058164;28;20105;-75
2023/05/07 05:34:41;;;;;;;10.75;8.73;;;10.30;99.90;;;;;;5077547;28;20055;-75
2023/05/07 05:37:07;;;;;;;15.77;10.10;;;10.40;99.90;;;;;;5043836;28;20048;-75
2023/05/07 05:39:33;;;;;;;11.75;8.70;;;10.50;99.90;;;;;;5094620;28;20069;-76
2023/05/07 05:41:59;;;;;;;10.18;9.07;;;10.50;99.90;;;;;;5061883;28;20139;-75
2023/05/07 05:44:25;;;;;;;11.20;9.23;;;10.40;99.90;;;;;;5056519;28;20376;-75
2023/05/07 05:46:51;;;;;;;12.48;10.55;;;10.60;99.90;;;;;;5033326;28;20064;-75
2023/05/07 05:49:17;;;;;;;12.88;10.68;;;10.40;99.90;;;;;;5074330;28;20040;-75
2023/05/07 05:51:43;;;;;;;13.05;11.65;;;10.30;99.90;;;;;;5060030;28;20044;-75
2023/05/07 05:54:09;;;;;;;13.73;11.10;;;10.40;99.90;;;;;;5050291;28;20368;-75
2023/05/07 05:56:34;;;;;;;13.10;11.05;;;10.50;99.90;;;;;;5058828;28;20039;-75
2023/05/07 05:59:00;;;;;;;13.63;11.55;;;10.50;99.90;;;;;;5043318;28;20040;-75
2023/05/07 06:01:26;;;;;;;13.90;11.13;;;10.40;99.90;;;;;;5081948;28;20082;-75
2023/05/07 06:03:52;;;;;;;14.32;11.02;;;10.50;99.90;;;;;;5041268;28;20043;-75
2023/05/07 06:06:18;;;;;;;15.00;11.60;;;10.40;99.90;;;;;;5070089;28;20062;-75
2023/05/07 06:08:43;;;;;;;14.10;11.40;;;10.20;99.90;;;;;;5076950;28;20105;-75
2023/05/07 06:11:09;;;;;;;12.32;10.40;;;10.30;99.90;;;;;;5076761;28;20051;-75
2023/05/07 06:13:36;;;;;;;12.65;10.73;;;10.40;99.90;;;;;;5076792;28;20040;-75
2023/05/07 06:16:02;;;;;;;12.82;10.52;;;10.50;99.90;;;;;;5057314;28;20048;-75
2023/05/07 06:18:28;;;;;;;12.82;10.98;;;10.50;99.90;;;;;;5069676;28;20372;-74
2023/05/07 06:20:54;;;;;;;13.90;10.88;;;10.60;99.90;;;;;;5056108;28;20090;-75
2023/05/07 06:23:20;;;;;;;12.98;10.70;;;10.60;99.90;;;;;;5054761;28;20048;-75
2023/05/07 06:25:51;;;;;;;12.35;9.98;;;10.60;99.90;;;;;;5058885;28;20035;-74
2023/05/07 06:28:17;;;;;;;12.43;10.55;;;10.50;99.90;;;;;;5052845;28;20048;-75
2023/05/07 06:30:43;;;;;;;11.73;10.02;;;10.50;99.90;;;;;;5059591;28;20108;-75
2023/05/07 06:33:09;;;;;;;12.60;10.70;;;10.50;99.90;;;;;;5057963;28;20444;-75
2023/05/07 06:35:35;;;;;;;12.30;9.95;;;10.40;99.90;;;;;;5074595;28;20186;-75
2023/05/07 06:38:00;;;;;;;9.30;8.10;;;10.40;99.90;;;;;;5074342;28;20040;-75
2023/05/07 06:40:26;;;;;;;10.32;8.73;;;10.60;99.90;;;;;;5044991;28;20505;-75
2023/05/07 06:42:52;;;;;;;11.02;8.70;;;10.60;99.90;;;;;;5071724;28;20546;-75
2023/05/07 06:45:19;;;;;;;10.43;8.18;;;10.50;99.90;;;;;;5070323;28;20044;-75
2023/05/07 06:47:45;;;;;;;10.57;8.98;;;10.60;99.90;;;;;;5050379;28;20044;-75
2023/05/07 06:50:10;;;;;;;11.52;8.50;;;10.60;99.90;;;;;;5046516;28;20036;-75
2023/05/07 06:52:36;;;;;;;10.50;8.32;;;10.70;99.90;;;;;;5045854;28;20463;-75
2023/05/07 06:55:04;;;;;;;10.13;7.78;;;10.80;99.90;;;;;;5085130;28;20040;-75
2023/05/07 06:57:30;;;;;;;11.00;8.25;;;10.70;99.90;;;;;;5052890;28;20047;-75
2023/05/07 06:59:56;;;;;;;10.38;8.35;;;10.80;99.90;;;;;;5069388;28;20760;-76
2023/05/07 07:02:22;;;;;;;10.23;8.02;;;10.80;99.90;;;;;;5091936;28;20121;-76
2023/05/07 07:04:47;;;;;;;10.68;8.05;;;10.80;99.90;;;;;;5085458;28;20083;-76
2023/05/07 07:07:13;;;;;;;9.65;8.52;;;10.80;99.90;;;;;;5059298;28;20044;-76
2023/05/07 07:09:39;;;;;;;10.85;9.60;;;10.70;99.90;;;;;;5059253;28;20040;-75
2023/05/07 07:12:05;;;;;;;10.80;8.68;;;10.60;99.90;;;;;;5063300;28;20036;-75
2023/05/07 07:14:30;;;;;;;9.88;8.82;;;10.70;99.90;;;;;;5054045;28;20040;-75
2023/05/07 07:16:56;;;;;;;12.18;8.57;;;10.90;99.90;;;;;;5068991;28;20047;-76
2023/05/07 07:19:22;;;;;;;12.10;9.45;;;10.80;99.90;;;;;;5079732;28;20041;-75
2023/05/07 07:21:48;;;;;;;11.25;8.70;;;10.90;99.90;;;;;;5090555;28;20193;-75
2023/05/07 07:24:19;;;;;;;12.40;9.40;;;10.80;99.90;;;;;;5088754;28;20128;-75
2023/05/07 07:26:44;;;;;;;11.57;8.95;;;10.80;99.90;;;;;;5052764;28;20106;-75
2023/05/07 07:29:10;;;;;;;11.35;9.60;;;10.90;99.90;;;;;;5076124;28;20472;-75
2023/05/07 07:31:36;;;;;;;12.30;9.38;;;10.70;99.90;;;;;;5075520;28;20040;-75
2023/05/07 07:34:02;;;;;;;10.70;9.07;;;10.60;99.90;;;;;;5069162;28;20123;-75
2023/05/07 07:36:27;;;;;;;11.65;8.70;;;10.50;99.90;;;;;;5025562;28;20407;-75
2023/05/07 07:38:53;;;;;;;11.73;8.88;;;10.50;99.90;;;;;;5058976;28;20044;-76
2023/05/07 07:41:19;;;;;;;10.00;8.15;;;10.60;99.90;;;;;;5076878;28;20142;-76
2023/05/07 07:43:46;;;;;;;9.95;7.78;;;10.60;99.90;;;;;;5061955;28;20131;-75
2023/05/07 07:46:13;;;;;;;9.93;8.18;;;10.70;99.90;;;;;;5089465;28;20036;-75
2023/05/07 07:48:39;;;;;;;8.85;6.60;;;10.70;99.90;;;;;;5073657;28;20043;-75
2023/05/07 07:51:05;;;;;;;10.52;7.38;;;10.70;99.90;;;;;;5060978;28;20040;-76
2023/05/07 07:53:31;;;;;;;8.38;6.90;;;10.70;99.90;;;;;;5067427;28;20053;-75
2023/05/07 07:55:57;;;;;;;9.07;7.28;;;10.90;99.90;;;;;;5087167;28;20127;-77
2023/05/07 07:58:24;;;;;;;10.20;7.05;;;11.00;99.90;;;;;;5080261;28;20087;-77
2023/05/07 08:00:50;;;;;;;9.20;7.85;;;11.20;99.90;;;;;;5069400;28;20125;-75
2023/05/07 08:03:17;;;;;;;22.85;7.88;;;11.20;99.90;;;;;;5080165;28;20051;-77
2023/05/07 08:05:43;;;;;;;10.27;7.75;;;11.30;99.90;;;;;;5047205;28;20036;-77
2023/05/07 08:08:09;;;;;;;10.27;7.47;;;11.40;99.90;;;;;;5064466;28;20036;-77
2023/05/07 08:10:37;;;;;;;9.68;7.40;;;11.50;99.90;;;;;;5057503;28;20036;-77
2023/05/07 08:13:04;;;;;;;;;;;11.50;99.90;;;;;;5048809;28;20111;-77
2023/05/07 08:15:30;;;;;;;10.88;7.78;;;11.60;99.90;;;;;;5074584;28;19999;-77
2023/05/07 08:17:57;;;;;;;12.48;8.77;;;11.60;99.90;;;;;;5062016;28;20124;-75
2023/05/07 08:20:23;;;;;;;10.75;8.70;;;11.70;99.90;;;;;;5061530;28;20116;-75
2023/05/07 08:22:49;;;;;;;10.57;9.25;;;11.60;99.90;;;;;;5094535;28;20094;-75
2023/05/07 08:25:16;;;;;;;12.25;9.57;;;11.50;99.90;;;;;;5061557;28;20065;-75
2023/05/07 08:27:42;;;;;;;11.68;8.85;;;11.50;99.90;;;;;;5062085;28;20044;-75
2023/05/07 08:30:08;;;;;;;10.85;9.75;;;11.40;99.90;;;;;;5051739;28;20051;-75
2023/05/07 08:32:34;;;;;;;13.15;9.35;;;11.40;99.90;;;;;;5059743;28;20083;-76
2023/05/07 08:35:00;;;;;;;10.90;9.00;;;11.50;99.90;;;;;;5092707;28;20078;-75
2023/05/07 08:37:25;;;;;;;11.95;9.57;;;11.50;99.90;;;;;;5044177;28;20047;-77
2023/05/07 08:39:52;;;;;;;11.93;9.27;;;11.50;99.90;;;;;;5062386;28;20052;-77
2023/05/07 08:42:18;;;;;;;11.13;9.50;;;11.60;99.90;;;;;;5077662;28;20526;-75
2023/05/07 08:44:46;;;;;;;11.80;9.40;;;11.50;99.90;;;;;;5070506;28;20052;-75
2023/05/07 08:47:12;;;;;;;12.77;9.32;;;11.60;99.90;;;;;;5072281;28;20040;-75
2023/05/07 08:49:38;;;;;;;11.13;8.65;;;11.50;99.90;;;;;;5078110;28;20047;-75
2023/05/07 08:52:04;;;;;;;10.20;8.30;;;11.50;99.90;;;;;;5042064;28;20453;-75
2023/05/07 08:54:29;;;;;;;9.90;8.05;;;11.40;99.90;;;;;;5073347;28;20052;-76
2023/05/07 08:56:55;;;;;;;11.63;8.73;;;11.60;99.90;;;;;;5055067;28;20041;-75
2023/05/07 08:59:21;;;;;;;10.43;8.20;;;11.60;99.90;;;;;;5041479;28;20076;-76
2023/05/07 09:01:47;;;;;;;9.43;7.82;;;11.60;99.90;;;;;;5066288;28;20097;-75
2023/05/07 09:04:13;;;;;;;9.02;7.93;;;11.70;99.90;;;;;;5094482;28;20155;-76
2023/05/07 09:06:41;;;;;;;9.48;7.93;;;11.60;99.90;;;;;;5078144;28;20177;-75
2023/05/07 09:09:07;;;;;;;;;;;11.70;99.90;;;;;;5095099;28;20086;-75
2023/05/07 09:11:33;;;;;;;10.77;9.15;;;11.60;99.90;;;;;;5082879;28;20072;-75
2023/05/07 09:14:01;;;;;;;9.60;7.90;;;11.80;99.90;;;;;;5075181;28;20472;-75
2023/05/07 09:16:28;;;;;;;9.40;7.95;;;11.80;99.90;;;;;;5041140;28;20364;-75
2023/05/07 09:18:54;;;;;;;10.00;8.35;;;11.80;99.90;;;;;;5043956;28;20048;-75
2023/05/07 09:21:20;;;;;;;9.65;8.27;;;11.80;99.90;;;;;;5052496;28;20055;-75
2023/05/07 09:23:51;;;;;;;9.52;7.35;;;11.80;99.90;;;;;;5067857;28;20063;-77
2023/05/07 09:26:16;;;;;;;14.07;7.95;;;11.90;99.90;;;;;;5025612;28;20737;-76
2023/05/07 09:28:44;;;;;;;10.10;7.70;;;11.70;99.90;;;;;;5087085;28;20143;-75
2023/05/07 09:31:10;;;;;;;9.77;7.00;;;11.60;99.90;;;;;;5049872;28;20335;-75
2023/05/07 09:33:36;;;;;;;8.48;7.05;;;11.70;99.90;;;;;;5060839;28;20133;-75
2023/05/07 09:36:08;;;;;;;8.75;6.50;;;11.70;99.90;;;;;;5038142;28;20040;-75
2023/05/07 09:38:34;;;;;;;9.30;6.28;;;11.90;99.90;;;;;;5081295;28;20055;-75
2023/05/07 09:41:11;;;;;;;7.22;6.13;;;11.90;99.90;;;;;;5077155;28;20048;-75
2023/05/07 09:43:37;;;;;;;6.30;5.55;;;12.00;99.90;;;;;;5081747;28;20036;-75
2023/05/07 09:46:13;;;;;;;6.85;5.90;;;12.10;99.90;;;;;;5056509;28;20584;-76
2023/05/07 09:48:41;;;;;;;7.47;5.95;;;12.00;99.90;;;;;;5082810;28;20048;-75
2023/05/07 09:51:18;;;;;;;7.38;5.70;;;12.00;99.90;;;;;;5070394;28;20032;-75
2023/05/07 09:53:46;;;;;;;8.60;5.10;;;12.10;99.90;;;;;;5071310;28;20062;-75
2023/05/07 09:56:13;;;;;;;6.70;5.22;;;12.30;99.90;;;;;;5073447;28;20104;-75
2023/05/07 09:58:39;;;;;;;7.10;5.20;;;12.10;99.90;;;;;;5050774;28;20040;-75
2023/05/07 10:01:04;;;;;;;8.25;5.38;;;12.20;99.90;;;;;;5060159;28;20052;-75
2023/05/07 10:03:30;;;;;;;6.72;5.00;;;12.40;99.90;;;;;;5058012;28;20050;-75
2023/05/07 10:05:56;;;;;;;6.50;4.88;;;12.10;99.90;;;;;;5041935;28;20487;-75
2023/05/07 10:08:22;;;;;;;6.63;5.70;;;12.30;99.90;;;;;;5059582;28;20055;-76
2023/05/07 10:10:48;;;;;;;7.47;6.05;;;12.50;99.90;;;;;;5059314;28;20513;-76
2023/05/07 10:13:14;;;;;;;8.18;6.18;;;12.70;99.90;;;;;;5058929;28;20048;-76
2023/05/07 10:15:39;;;;;;;7.72;6.05;;;12.70;99.90;;;;;;5054628;28;20102;-76
2023/05/07 10:18:05;;;;;;;8.05;6.30;;;12.80;99.90;;;;;;5052903;28;20071;-75
2023/05/07 10:20:31;;;;;;;7.40;6.15;;;12.70;99.90;;;;;;5076033;28;20048;-76
2023/05/07 10:22:57;;;;;;;9.30;6.03;;;12.70;99.90;;;;;;5042592;28;20051;-75
2023/05/07 10:25:28;;;;;;;7.32;6.35;;;12.70;99.90;;;;;;5056029;28;20051;-76
2023/05/07 10:27:54;;;;;;;9.55;6.68;;;12.60;99.90;;;;;;5070216;28;20044;-75
2023/05/07 10:30:33;;;;;;;8.38;6.43;;;12.60;99.90;;;;;;5056577;28;20416;-75
2023/05/07 10:33:05;;;;;;;9.15;6.47;;;12.50;99.90;;;;;;5074913;28;20044;-75
2023/05/07 10:35:32;;;;;;;7.60;6.60;;;12.50;99.90;;;;;;5049443;28;20055;-76
2023/05/07 10:38:03;;;;;;;7.00;5.88;;;12.20;99.90;;;;;;5059165;28;20118;-76
2023/05/07 10:40:28;;;;;;;7.68;6.18;;;12.20;99.90;;;;;;5050081;28;20472;-75
2023/05/07 10:42:56;;;;;;;9.10;5.88;;;12.30;99.90;;;;;;5038439;28;20047;-75
2023/05/07 10:45:22;;;;;;;7.25;5.82;;;12.40;99.90;;;;;;5046804;28;20097;-75
2023/05/07 10:48:12;;;;;;;7.28;5.65;;;12.40;99.90;;;;;;5088902;28;20040;-75
2023/05/07 10:50:40;;;;;;;7.53;5.30;;;12.40;99.90;;;;;;5084611;28;20384;-73
2023/05/07 10:53:20;;;;;;;6.15;4.88;;;12.40;99.90;;;;;;5064351;28;20044;-74
2023/05/07 10:56:15;;;;;;;6.72;4.70;;;12.50;99.90;;;;;;5090291;28;20622;-74
2023/05/07 10:58:41;;;;;;;5.45;4.47;;;12.40;99.90;;;;;;5049770;28;20356;-73
2023/05/07 11:01:07;;;;;;;5.85;3.97;;;12.50;99.90;;;;;;5088322;28;20048;-73
2023/05/07 11:03:32;;;;;;;6.63;4.13;;;12.50;99.90;;;;;;5074628;28;20040;-73
2023/05/07 11:06:14;;;;;;;6.60;3.83;;;12.40;99.90;;;;;;5038862;28;20055;-73
2023/05/07 11:08:53;;;;;;;5.53;4.38;;;12.30;99.90;;;;;;5085158;28;20068;-73
2023/05/07 11:11:22;;;;;;;6.05;4.13;;;12.20;99.90;;;;;;5090577;28;20123;-73
2023/05/07 11:13:48;;;;;;;6.38;4.10;;;12.20;99.90;;;;;;5058284;28;20476;-73
2023/05/07 11:16:27;;;;;;;4.43;3.20;;;12.30;99.90;;;;;;5057744;28;20052;-73
2023/05/07 11:18:56;;;;;;;5.38;3.63;;;12.50;99.90;;;;;;5083464;28;20405;-73
2023/05/07 11:21:35;;;;;;;4.80;3.53;;;12.60;99.90;;;;;;5078310;28;20040;-73
2023/05/07 11:24:01;;;;;;;5.95;3.88;;;12.70;99.90;;;;;;5088148;28;20059;-74
2023/05/07 11:26:29;;;;;;;5.00;3.90;;;12.70;99.90;;;;;;5054671;28;20155;-73
2023/05/07 11:28:54;;;;;;;4.43;3.53;;;12.80;99.90;;;;;;5077029;28;20045;-74
2023/05/07 11:31:25;;;;;;;5.35;3.95;;;12.90;99.90;;;;;;5063285;28;20055;-75
2023/05/07 11:33:52;;;;;;;6.07;4.10;;;13.10;99.90;;;;;;5074145;28;20085;-73
2023/05/07 11:36:17;;;;;;;6.18;4.07;;;13.10;99.90;;;;;;5060884;28;20055;-74
2023/05/07 11:38:43;;;;;;;7.35;4.63;;;12.80;99.90;;;;;;5095841;28;20044;-73
2023/05/07 11:41:10;;;;;;;6.63;5.35;;;13.00;99.90;;;;;;5084784;28;20040;-73
2023/05/07 11:43:35;;;;;;;6.07;3.95;;;13.00;99.90;;;;;;5070810;28;20049;-73
2023/05/07 11:46:19;;;;;;;6.13;4.45;;;13.20;99.90;;;;;;5049172;28;20048;-73
2023/05/07 11:48:48;;;;;;;6.63;4.68;;;13.00;99.90;;;;;;5059524;28;20040;-73
2023/05/07 11:51:13;;;;;;;;;;;12.80;99.90;;;;;;5077496;28;20040;-73
2023/05/07 11:53:40;;;;;;;8.00;4.90;;;12.80;99.90;;;;;;5077320;28;19923;-73
2023/05/07 11:56:11;;;;;;;6.95;5.10;;;12.80;99.90;;;;;;5061074;28;20056;-73
2023/05/07 11:58:36;;;;;;;8.02;5.53;;;12.70;99.90;;;;;;5042507;28;20044;-73
2023/05/07 12:01:02;;;;;;;9.98;5.63;;;12.80;99.90;;;;;;5090706;28;20159;-73
2023/05/07 12:03:28;;;;;;;8.23;5.72;;;12.80;99.90;;;;;;5077927;28;20070;-73
2023/05/07 12:05:54;;;;;;;8.43;5.47;;;12.80;99.90;;;;;;5095258;28;20664;-73
2023/05/07 12:08:20;;;;;;;7.88;6.18;;;13.00;99.90;;;;;;5060108;28;20044;-73
2023/05/07 12:10:47;;;;;;;7.20;5.47;;;12.90;99.90;;;;;;5074454;28;20036;-73
2023/05/07 12:13:23;;;;;;;8.60;6.30;;;12.80;99.90;;;;;;5059118;28;20044;-74
2023/05/07 12:15:52;;;;;;;7.88;6.30;;;12.90;99.90;;;;;;5048621;28;20469;-73
2023/05/07 12:18:18;;;;;;;8.15;6.22;;;12.90;99.90;;;;;;5078319;28;20044;-73
2023/05/07 12:20:44;;;;;;;7.07;5.80;;;12.80;99.90;;;;;;5077535;28;20127;-73
2023/05/07 12:23:10;;;;;;;8.60;5.38;;;12.70;99.90;;;;;;5076736;28;20059;-73
2023/05/07 12:25:38;;;;;;;7.53;5.70;;;12.60;99.90;;;;;;5049055;28;20365;-73
2023/05/07 12:28:07;;;;;;;8.20;6.28;;;12.60;99.90;;;;;;5058142;28;20477;-73
2023/05/07 12:30:37;;;;;;;7.82;5.60;;;12.70;99.90;;;;;;5071507;28;20048;-73
2023/05/07 12:33:03;;;;;;;8.93;5.70;;;12.70;99.90;;;;;;5059251;28;20052;-74
2023/05/07 12:35:36;;;;;;;9.13;6.10;;;12.60;99.90;;;;;;5076889;28;20092;-73